createdAt,value
2022-11-25T00:01:09.798Z,100652.84
2022-11-25T00:03:36.688Z,100646.09
2022-11-25T00:06:13.425Z,100642.72
2022-11-25T00:08:41.410Z,100649.88
2022-11-25T00:11:08.607Z,100643.75
2022-11-25T00:13:36.153Z,100635.06
2022-11-25T00:16:08.660Z,100630.84
2022-11-25T00:18:35.621Z,100633.41
2022-11-25T00:21:10.552Z,100633.66
2022-11-25T00:23:37.704Z,100620.66
2022-11-25T00:26:11.379Z,100613.75
2022-11-25T00:28:38.662Z,100620.50
2022-11-25T00:31:16.374Z,100622.66
2022-11-25T00:33:43.569Z,100629.44
2022-11-25T00:36:15.725Z,100634.31
2022-11-25T00:38:42.319Z,100630.34
2022-11-25T00:41:27.449Z,100632.50
2022-11-25T00:44:12.260Z,100639.06
2022-11-25T00:46:38.873Z,100638.69
2022-11-25T00:49:05.459Z,100639.34
2022-11-25T00:51:31.892Z,100638.09
2022-11-25T00:53:59.211Z,100638.16
2022-11-25T00:56:26.261Z,100640.09
2022-11-25T00:58:53.234Z,100634.69
2022-11-25T01:01:20.013Z,100645.03
2022-11-25T01:03:49.506Z,100632.44
2022-11-25T01:06:16.026Z,100623.63
2022-11-25T01:08:42.454Z,100630.81
2022-11-25T01:11:11.879Z,100631.84
2022-11-25T01:13:38.301Z,100618.97
2022-11-25T01:16:06.272Z,100619.16
2022-11-25T01:18:33.547Z,100622.28
2022-11-25T01:21:27.822Z,100616.38
2022-11-25T01:23:54.362Z,100613.81
2022-11-25T01:26:23.767Z,100616.78
2022-11-25T01:28:55.426Z,100626.88
2022-11-25T01:31:23.524Z,100628.97
2022-11-25T01:33:56.569Z,100626.59
2022-11-25T01:36:23.728Z,100629.34
2022-11-25T01:38:58.134Z,100626.81
2022-11-25T01:41:26.436Z,100626.81
2022-11-25T01:44:11.302Z,100620.50
2022-11-25T01:46:53.909Z,100615.88
2022-11-25T01:49:26.292Z,100615.66
2022-11-25T01:51:55.898Z,100622.66
2022-11-25T01:54:25.813Z,100623.09
2022-11-25T01:57:04.929Z,100616.38
2022-11-25T01:59:33.830Z,100623.53
2022-11-25T02:02:00.856Z,100619.38
2022-11-25T02:04:33.627Z,100608.03
2022-11-25T02:07:11.163Z,100612.06
2022-11-25T02:09:41.390Z,100607.22
2022-11-25T02:12:08.014Z,100602.19
2022-11-25T02:14:34.948Z,100612.94
2022-11-25T02:19:58.661Z,100599.69
2022-11-25T02:22:43.503Z,100595.94
2022-11-25T02:25:19.982Z,100595.72
2022-11-25T02:27:50.809Z,100588.34
2022-11-25T02:30:17.786Z,100595.53
2022-11-25T02:32:48.626Z,100595.72
2022-11-25T02:35:36.252Z,100598.66
2022-11-25T02:38:10.347Z,100606.03
2022-11-25T02:40:59.687Z,100601.78
2022-11-25T02:43:27.893Z,100597.81
2022-11-25T02:45:59.367Z,100601.19
2022-11-25T02:48:52.847Z,100578.44
2022-11-25T02:51:17.218Z,100579.28
2022-11-25T02:53:44.282Z,100582.88
2022-11-25T02:56:12.541Z,100580.56
2022-11-25T02:58:39.371Z,100576.78
2022-11-25T03:01:06.008Z,100577.81
2022-11-25T03:03:32.565Z,100579.72
2022-11-25T03:05:58.993Z,100573.78
2022-11-25T03:08:25.350Z,100576.53
2022-11-25T03:10:51.780Z,100561.81
2022-11-25T03:13:18.177Z,100567.28
2022-11-25T03:15:44.639Z,100576.13
2022-11-25T03:18:11.045Z,100578.88
2022-11-25T03:20:37.916Z,100584.34
2022-11-25T03:23:05.344Z,100583.97
2022-11-25T03:25:31.882Z,100583.56
2022-11-25T03:27:58.337Z,100575.97
2022-11-25T03:30:27.109Z,100567.97
2022-11-25T03:32:53.516Z,100566.91
2022-11-25T03:35:20.009Z,100561.25
2022-11-25T03:37:46.573Z,100557.66
2022-11-25T03:40:14.609Z,100553.88
2022-11-25T03:42:41.461Z,100550.91
2022-11-25T03:45:10.219Z,100556.00
2022-11-25T03:47:36.655Z,100554.31
2022-11-25T03:50:03.640Z,100562.97
2022-11-25T03:52:30.179Z,100575.63
2022-11-25T03:54:56.564Z,100564.44
2022-11-25T03:57:23.147Z,100567.44
2022-11-25T03:59:49.597Z,100582.44
2022-11-25T04:02:16.097Z,100587.88
2022-11-25T04:04:42.857Z,100585.56
2022-11-25T04:07:09.680Z,100577.13
2022-11-25T04:09:36.189Z,100591.09
2022-11-25T04:12:21.360Z,100582.88
2022-11-25T04:14:47.879Z,100588.78
2022-11-25T04:17:14.305Z,100590.91
2022-11-25T04:19:40.781Z,100593.00
2022-11-25T04:22:07.764Z,100594.47
2022-11-25T04:24:34.646Z,100611.78
2022-11-25T04:27:01.242Z,100606.72
2022-11-25T04:29:27.642Z,100606.72
2022-11-25T04:31:54.091Z,100600.38
2022-11-25T04:34:20.521Z,100597.84
2022-11-25T04:36:46.954Z,100594.88
2022-11-25T04:39:13.617Z,100588.75
2022-11-25T04:41:40.034Z,100590.00
2022-11-25T04:44:06.454Z,100586.00
2022-11-25T04:46:39.805Z,100586.66
2022-11-25T04:49:06.392Z,100585.59
2022-11-25T04:51:32.931Z,100584.34
2022-11-25T04:53:59.471Z,100578.44
2022-11-25T04:56:25.949Z,100581.63
2022-11-25T04:59:11.414Z,100577.66
2022-11-25T05:01:37.993Z,100566.69
2022-11-25T05:04:04.736Z,100577.25
2022-11-25T05:06:31.105Z,100582.31
2022-11-25T05:08:57.491Z,100588.41
2022-11-25T05:11:23.886Z,100599.38
2022-11-25T05:13:50.263Z,100600.22
2022-11-25T05:16:16.725Z,100604.69
2022-11-25T05:18:43.208Z,100617.34
2022-11-25T05:21:09.701Z,100614.59
2022-11-25T05:23:36.133Z,100607.22
2022-11-25T05:26:04.433Z,100608.50
2022-11-25T05:28:31.415Z,100611.88
2022-11-25T05:30:58.538Z,100618.84
2022-11-25T05:33:25.004Z,100626.69
2022-11-25T05:35:59.543Z,100628.16
2022-11-25T05:38:26.692Z,100630.31
2022-11-25T05:40:54.226Z,100640.19
2022-11-25T05:43:20.621Z,100627.34
2022-11-25T05:45:47.050Z,100627.34
2022-11-25T05:48:13.586Z,100623.13
2022-11-25T05:50:40.047Z,100631.13
2022-11-25T05:53:06.596Z,100630.50
2022-11-25T05:55:33.067Z,100638.16
2022-11-25T05:58:00.099Z,100641.16
2022-11-25T06:00:27.409Z,100642.44
2022-11-25T06:02:54.062Z,100642.88
2022-11-25T06:05:21.098Z,100645.38
2022-11-25T06:07:47.596Z,100641.19
2022-11-25T06:10:14.263Z,100639.72
2022-11-25T06:12:40.670Z,100639.31
2022-11-25T06:15:07.791Z,100641.63
2022-11-25T06:17:34.293Z,100634.06
2022-11-25T06:20:00.743Z,100645.03
2022-11-25T06:22:27.183Z,100649.66
2022-11-25T06:25:00.367Z,100645.41
2022-11-25T06:27:43.974Z,100649.41
2022-11-25T06:30:16.317Z,100644.53
2022-11-25T06:32:43.036Z,100657.41
2022-11-25T06:35:09.564Z,100677.25
2022-11-25T06:37:35.968Z,100679.16
2022-11-25T06:40:02.537Z,100687.81
2022-11-25T06:42:29.042Z,100683.63
2022-11-25T06:44:55.422Z,100681.31
2022-11-25T06:47:22.971Z,100687.66
2022-11-25T06:49:49.768Z,100685.34
2022-11-25T06:52:16.203Z,100685.16
2022-11-25T06:54:42.952Z,100675.84
2022-11-25T06:57:10.159Z,100673.75
2022-11-25T06:59:37.274Z,100673.09
2022-11-25T07:02:04.697Z,100689.19
2022-11-25T07:04:31.307Z,100715.19
2022-11-25T07:06:57.704Z,100711.78
2022-11-25T07:09:24.936Z,100696.59
2022-11-25T07:11:51.442Z,100700.00
2022-11-25T07:14:18.958Z,100708.25
2022-11-25T07:16:46.398Z,100702.94
2022-11-25T07:19:15.416Z,100712.28
2022-11-25T07:21:46.338Z,100715.66
2022-11-25T07:24:17.431Z,100726.44
2022-11-25T07:26:44.753Z,100718.19
2022-11-25T07:32:08.689Z,100727.47
2022-11-25T07:34:36.822Z,100730.22
2022-11-25T07:37:03.229Z,100726.44
2022-11-25T07:39:29.664Z,100736.56
2022-11-25T07:41:56.038Z,100748.59
2022-11-25T07:44:22.501Z,100750.28
2022-11-25T07:46:50.163Z,100744.81
2022-11-25T07:49:19.654Z,100749.44
2022-11-25T07:51:59.097Z,100747.75
2022-11-25T07:54:25.797Z,100758.72
2022-11-25T07:56:52.236Z,100743.09
2022-11-25T07:59:21.021Z,100741.22
2022-11-25T08:01:52.372Z,100763.84
2022-11-25T08:04:20.711Z,100749.03
2022-11-25T08:06:50.295Z,100749.03
2022-11-25T08:09:19.608Z,100755.59
2022-11-25T08:11:46.615Z,100762.53
2022-11-25T08:14:13.700Z,100767.16
2022-11-25T08:16:40.187Z,100775.41
2022-11-25T08:19:11.607Z,100768.00
2022-11-25T08:21:38.081Z,100783.66
2022-11-25T08:24:05.349Z,100787.69
2022-11-25T08:26:35.581Z,100790.84
2022-11-25T08:29:03.042Z,100791.28
2022-11-25T08:31:37.768Z,100794.25
2022-11-25T08:34:06.140Z,100801.88
2022-11-25T08:36:34.205Z,100795.78
2022-11-25T08:39:12.606Z,100798.94
2022-11-25T08:41:49.300Z,100799.13
2022-11-25T08:44:15.834Z,100805.22
2022-11-25T08:46:43.042Z,100802.91
2022-11-25T08:49:09.843Z,100800.59
2022-11-25T08:51:38.103Z,100801.03
2022-11-25T08:54:07.000Z,100809.06
2022-11-25T08:56:33.738Z,100814.56
2022-11-25T08:59:00.196Z,100826.44
2022-11-25T09:01:27.680Z,100817.34
2022-11-25T09:03:55.716Z,100817.16
2022-11-25T09:06:23.908Z,100814.66
2022-11-25T09:08:50.735Z,100822.91
2022-11-25T09:11:17.640Z,100827.38
2022-11-25T09:13:44.257Z,100830.97
2022-11-25T09:16:10.883Z,100833.53
2022-11-25T09:18:37.487Z,100838.81
2022-11-25T09:21:21.770Z,100840.53
2022-11-25T09:23:50.715Z,100839.03
2022-11-25T09:26:26.291Z,100836.06
2022-11-25T09:28:53.282Z,100842.84
2022-11-25T09:31:20.781Z,100835.88
2022-11-25T09:33:47.206Z,100841.84
2022-11-25T09:36:15.809Z,100849.88
2022-11-25T09:38:45.841Z,100855.97
2022-11-25T09:41:53.218Z,100857.84
2022-11-25T09:45:01.342Z,100867.97
2022-11-25T09:47:43.570Z,100873.44
2022-11-25T09:50:28.177Z,100865.53
2022-11-25T09:53:00.771Z,100873.06
2022-11-25T09:55:35.480Z,100871.25
2022-11-25T09:58:28.693Z,100871.56
2022-11-25T10:00:55.164Z,100874.91
2022-11-25T10:03:45.584Z,100865.63
2022-11-25T10:06:17.616Z,100870.16
2022-11-25T10:08:49.016Z,100872.44
2022-11-25T10:11:24.338Z,100874.97
2022-11-25T10:14:05.638Z,100875.69
2022-11-25T10:16:51.397Z,100878.16
2022-11-25T10:19:50.785Z,100879.88
2022-11-25T10:22:31.076Z,100880.25
2022-11-25T10:25:01.720Z,100880.69
2022-11-25T10:28:02.242Z,100882.91
2022-11-25T10:31:04.870Z,100879.13
2022-11-25T10:33:41.818Z,100874.91
2022-11-25T10:36:19.809Z,100868.28
2022-11-25T10:39:01.727Z,100873.75
2022-11-25T10:41:57.457Z,100874.09
2022-11-25T10:44:30.499Z,100875.06
2022-11-25T10:47:15.754Z,100873.00
2022-11-25T10:50:08.017Z,100875.13
2022-11-25T10:52:44.302Z,100878.72
2022-11-25T10:55:20.879Z,100879.16
2022-11-25T10:57:47.338Z,100877.31
2022-11-25T11:00:29.826Z,100886.25
2022-11-25T11:02:58.033Z,100883.31
2022-11-25T11:05:29.605Z,100885.81
2022-11-25T11:08:13.752Z,100885.84
2022-11-25T11:10:40.462Z,100894.28
2022-11-25T11:13:22.935Z,100893.06
2022-11-25T11:15:50.274Z,100891.47
2022-11-25T11:18:25.757Z,100897.06
2022-11-25T11:20:55.445Z,100902.63
2022-11-25T11:23:22.772Z,100899.31
2022-11-25T11:26:05.746Z,100901.78
2022-11-25T11:28:36.732Z,100894.06
2022-11-25T11:31:08.460Z,100896.88
2022-11-25T11:33:41.640Z,100911.50
2022-11-25T11:36:39.189Z,100908.44
2022-11-25T11:39:37.731Z,100916.78
2022-11-25T11:42:18.687Z,100914.88
2022-11-25T11:44:45.049Z,100912.34
2022-11-25T11:47:30.168Z,100915.09
2022-11-25T11:50:27.543Z,100924.88
2022-11-25T11:53:00.181Z,100922.47
2022-11-25T11:56:26.756Z,100941.06
2022-11-25T11:59:04.867Z,100931.59
2022-11-25T12:01:55.600Z,100926.41
2022-11-25T12:04:30.872Z,100943.09
2022-11-25T12:07:09.159Z,100935.81
2022-11-25T12:09:47.987Z,100947.56
2022-11-25T12:12:19.237Z,100952.91
2022-11-25T12:14:50.728Z,100947.84
2022-11-25T12:17:37.948Z,100956.47
2022-11-25T12:20:56.148Z,100965.28
2022-11-25T12:24:03.965Z,100965.03
2022-11-25T12:26:50.972Z,100975.47
2022-11-25T12:29:31.428Z,100971.22
2022-11-25T12:32:21.927Z,100980.88
2022-11-25T12:35:17.706Z,100986.78
2022-11-25T12:37:54.856Z,100977.50
2022-11-25T12:41:02.656Z,100976.06
2022-11-25T12:43:45.674Z,100970.19
2022-11-25T12:46:39.657Z,100974.41
2022-11-25T12:49:13.735Z,100975.38
2022-11-25T12:52:08.325Z,100974.06
2022-11-25T12:55:16.318Z,100982.19
2022-11-25T12:58:01.096Z,100991.75
2022-11-25T13:00:42.813Z,100989.22
2022-11-25T13:03:24.765Z,100992.00
2022-11-25T13:05:59.379Z,101002.31
2022-11-25T13:08:56.371Z,101010.84
2022-11-25T13:11:54.040Z,101018.56
2022-11-25T13:14:33.030Z,101013.44
2022-11-25T13:17:00.897Z,101012.16
2022-11-25T13:19:27.656Z,101018.88
2022-11-25T13:22:06.224Z,101006.81
2022-11-25T13:24:38.168Z,101020.13
2022-11-25T13:27:05.487Z,101011.47
2022-11-25T13:29:31.819Z,101009.84
2022-11-25T13:31:59.795Z,101021.03
2022-11-25T13:34:28.215Z,101031.06
2022-11-25T13:36:57.019Z,101022.03
2022-11-25T13:39:23.319Z,101030.00
2022-11-25T13:42:16.890Z,101032.63
2022-11-25T13:44:54.740Z,101044.19
2022-11-25T13:47:47.103Z,101044.19
2022-11-25T13:50:22.267Z,101046.69
2022-11-25T13:53:16.462Z,101050.66
2022-11-25T13:55:43.000Z,101061.81
2022-11-25T13:58:09.337Z,101061.56
2022-11-25T14:00:35.757Z,101056.66
2022-11-25T14:03:20.648Z,101056.38
2022-11-25T14:06:08.988Z,101055.66
2022-11-25T14:09:01.820Z,101067.06
2022-11-25T14:11:41.526Z,101075.00
2022-11-25T14:14:16.761Z,101070.25
2022-11-25T14:17:21.710Z,101068.78
2022-11-25T14:20:14.554Z,101068.81
2022-11-25T14:23:25.838Z,101065.44
2022-11-25T14:25:54.475Z,101069.34
2022-11-25T14:28:31.797Z,101065.34
2022-11-25T14:31:05.070Z,101074.47
2022-11-25T14:33:36.366Z,101066.56
2022-11-25T14:36:12.807Z,101079.44
2022-11-25T14:38:49.802Z,101078.69
2022-11-25T14:41:25.391Z,101086.59
2022-11-25T14:43:57.832Z,101084.47
2022-11-25T14:46:25.572Z,101089.03
2022-11-25T14:49:03.339Z,101085.19
2022-11-25T14:51:37.806Z,101087.03
2022-11-25T14:54:08.866Z,101097.56
2022-11-25T14:56:36.936Z,101097.72
2022-11-25T14:59:04.389Z,101096.66
2022-11-25T15:01:33.485Z,101098.75
2022-11-25T15:04:12.369Z,101108.78
2022-11-25T15:06:43.012Z,101103.97
2022-11-25T15:09:21.324Z,101116.34
2022-11-25T15:11:51.111Z,101119.38
2022-11-25T15:14:29.873Z,101125.97
2022-11-25T15:16:57.510Z,101136.25
2022-11-25T15:19:33.245Z,101142.31
2022-11-25T15:24:54.762Z,101148.94
2022-11-25T15:27:26.606Z,101151.78
2022-11-25T15:29:54.580Z,101154.47
2022-11-25T15:32:31.560Z,101162.00
2022-11-25T15:35:00.985Z,101158.38
2022-11-25T15:37:28.354Z,101165.22
2022-11-25T15:40:33.014Z,101167.66
2022-11-25T15:43:06.654Z,101172.63
2022-11-25T15:45:44.271Z,101181.16
2022-11-25T15:48:45.114Z,101187.22
2022-11-25T15:51:26.858Z,101187.28
2022-11-25T15:54:18.628Z,101194.31
2022-11-25T15:56:51.429Z,101193.94
2022-11-25T15:59:56.425Z,101208.41
2022-11-25T16:02:39.944Z,101209.94
2022-11-25T16:05:12.455Z,101220.59
2022-11-25T16:07:51.125Z,101224.03
2022-11-25T16:10:24.577Z,101230.00
2022-11-25T16:13:20.967Z,101234.28
2022-11-25T16:15:51.017Z,101236.22
2022-11-25T16:18:39.221Z,101233.88
2022-11-25T16:21:10.595Z,101245.84
2022-11-25T16:23:49.073Z,101251.78
2022-11-25T16:26:22.436Z,101256.50
2022-11-25T16:28:56.588Z,101261.63
2022-11-25T16:31:24.545Z,101269.50
2022-11-25T16:34:09.582Z,101267.81
2022-11-25T16:36:35.995Z,101277.81
2022-11-25T16:39:02.426Z,101279.13
2022-11-25T16:41:29.825Z,101284.00
2022-11-25T16:44:00.876Z,101288.25
2022-11-25T16:46:29.282Z,101297.41
2022-11-25T16:48:55.761Z,101298.28
2022-11-25T16:51:24.238Z,101301.03
2022-11-25T16:53:50.782Z,101302.13
2022-11-25T16:56:27.865Z,101304.69
2022-11-25T16:58:54.954Z,101320.00
2022-11-25T17:01:24.913Z,101328.91
2022-11-25T17:03:51.557Z,101327.66
2022-11-25T17:06:22.346Z,101339.97
2022-11-25T17:08:49.789Z,101340.84
2022-11-25T17:11:25.586Z,101342.09
2022-11-25T17:13:53.728Z,101341.66
2022-11-25T17:16:24.126Z,101347.81
2022-11-25T17:18:53.525Z,101350.16
2022-11-25T17:21:20.694Z,101353.56
2022-11-25T17:23:50.211Z,101357.81
2022-11-25T17:26:29.330Z,101361.19
2022-11-25T17:29:00.482Z,101364.38
2022-11-25T17:31:29.700Z,101371.38
2022-11-25T17:33:56.261Z,101367.53
2022-11-25T17:36:22.928Z,101367.28
2022-11-25T17:38:49.748Z,101369.63
2022-11-25T17:41:18.879Z,101382.75
2022-11-25T17:43:47.477Z,101376.16
2022-11-25T17:46:15.915Z,101384.00
2022-11-25T17:48:42.804Z,101379.97
2022-11-25T17:51:11.102Z,101393.75
2022-11-25T17:53:39.478Z,101398.84
2022-11-25T17:56:28.129Z,101406.84
2022-11-25T17:58:55.321Z,101416.81
2022-11-25T18:01:21.862Z,101421.47
2022-11-25T18:03:52.974Z,101423.75
2022-11-25T18:06:20.082Z,101426.28
2022-11-25T18:08:47.191Z,101424.78
2022-11-25T18:11:17.869Z,101428.16
2022-11-25T18:13:47.414Z,101439.78
2022-11-25T18:16:17.559Z,101440.81
2022-11-25T18:18:43.998Z,101446.13
2022-11-25T18:21:11.651Z,101450.34
2022-11-25T18:23:38.100Z,101462.81
2022-11-25T18:26:05.095Z,101464.06
2022-11-25T18:28:32.745Z,101469.09
2022-11-25T18:31:03.798Z,101476.91
2022-11-25T18:33:31.389Z,101471.81
2022-11-25T18:35:58.308Z,101475.16
2022-11-25T18:38:24.730Z,101479.00
2022-11-25T18:40:53.857Z,101478.13
2022-11-25T18:43:23.294Z,101486.19
2022-11-25T18:45:49.816Z,101492.94
2022-11-25T18:48:19.285Z,101491.25
2022-11-25T18:50:47.545Z,101502.66
2022-11-25T18:53:14.081Z,101504.56
2022-11-25T18:55:40.838Z,101514.53
2022-11-25T18:58:25.414Z,101514.25
2022-11-25T19:00:54.533Z,101517.03
2022-11-25T19:03:23.333Z,101523.38
2022-11-25T19:05:50.310Z,101523.59
2022-11-25T19:08:18.407Z,101527.59
2022-11-25T19:10:46.976Z,101520.19
2022-11-25T19:13:25.073Z,101519.53
2022-11-25T19:15:51.910Z,101541.75
2022-11-25T19:18:24.457Z,101540.25
2022-11-25T19:20:51.249Z,101545.75
2022-11-25T19:23:25.047Z,101547.47
2022-11-25T19:26:00.440Z,101555.06
2022-11-25T19:28:27.946Z,101561.81
2022-11-25T19:30:58.897Z,101564.75
2022-11-25T19:33:34.107Z,101564.31
2022-11-25T19:36:00.644Z,101561.31
2022-11-25T19:38:27.240Z,101571.47
2022-11-25T19:40:55.204Z,101584.38
2022-11-25T19:43:22.861Z,101590.91
2022-11-25T19:45:54.371Z,101596.41
2022-11-25T19:48:22.548Z,101591.13
2022-11-25T19:50:59.392Z,101592.16
2022-11-25T19:53:31.736Z,101607.38
2022-11-25T19:56:03.728Z,101602.25
2022-11-25T19:58:30.480Z,101605.59
2022-11-25T20:00:59.142Z,101612.72
2022-11-25T20:03:30.315Z,101620.88
2022-11-25T20:05:57.224Z,101623.53
2022-11-25T20:08:26.974Z,101625.16
2022-11-25T20:10:54.658Z,101623.38
2022-11-25T20:13:23.406Z,101627.94
2022-11-25T20:15:50.560Z,101630.78
2022-11-25T20:18:19.869Z,101637.38
2022-11-25T20:20:49.113Z,101650.19
2022-11-25T20:23:30.255Z,101650.28
2022-11-25T20:25:56.882Z,101659.66
2022-11-25T20:28:28.654Z,101653.88
2022-11-25T20:30:55.059Z,101667.69
2022-11-25T20:33:24.757Z,101676.84
2022-11-25T20:35:57.122Z,101685.84
2022-11-25T20:38:26.637Z,101688.47
2022-11-25T20:40:56.442Z,101683.91
2022-11-25T20:43:38.899Z,101687.56
2022-11-25T20:46:06.796Z,101690.00
2022-11-25T20:48:35.261Z,101700.00
2022-11-25T20:51:03.189Z,101697.63
2022-11-25T20:53:32.068Z,101707.28
2022-11-25T20:55:59.275Z,101713.50
2022-11-25T20:58:30.679Z,101712.31
2022-11-25T21:00:58.487Z,101712.84
2022-11-25T21:03:25.999Z,101725.06
2022-11-25T21:05:54.791Z,101718.06
2022-11-25T21:08:23.957Z,101725.78
2022-11-25T21:10:52.695Z,101729.06
2022-11-25T21:13:21.981Z,101734.22
2022-11-25T21:15:49.389Z,101734.94
2022-11-25T21:18:16.447Z,101743.03
2022-11-25T21:20:43.215Z,101745.94
2022-11-25T21:23:18.807Z,101746.44
2022-11-25T21:25:45.647Z,101742.38
2022-11-25T21:28:21.282Z,101746.31
2022-11-25T21:30:48.066Z,101762.47
2022-11-25T21:33:15.270Z,101769.31
2022-11-25T21:35:45.314Z,101771.38
2022-11-25T21:38:23.993Z,101775.69
2022-11-25T21:40:53.823Z,101785.28
2022-11-25T21:43:25.095Z,101787.69
2022-11-25T21:46:03.841Z,101786.16
2022-11-25T21:48:31.296Z,101788.03
2022-11-25T21:50:58.628Z,101793.53
2022-11-25T21:53:25.009Z,101790.94
2022-11-25T21:55:52.112Z,101804.66
2022-11-25T21:58:26.370Z,101807.38
2022-11-25T22:00:58.420Z,101809.63
2022-11-25T22:03:28.973Z,101810.84
2022-11-25T22:05:55.724Z,101808.59
2022-11-25T22:08:23.233Z,101810.69
2022-11-25T22:10:54.422Z,101810.84
2022-11-25T22:13:29.797Z,101823.38
2022-11-25T22:15:58.834Z,101817.19
2022-11-25T22:18:30.600Z,101824.88
2022-11-25T22:20:57.449Z,101818.38
2022-11-25T22:23:24.002Z,101832.06
2022-11-25T22:25:51.635Z,101826.94
2022-11-25T22:28:20.779Z,101834.84
2022-11-25T22:30:55.591Z,101837.72
2022-11-25T22:33:28.776Z,101838.06
2022-11-25T22:35:55.149Z,101839.25
2022-11-25T22:38:22.494Z,101846.78
2022-11-25T22:40:56.147Z,101846.13
2022-11-25T22:43:26.687Z,101845.75
2022-11-25T22:45:53.610Z,101847.97
2022-11-25T22:48:29.847Z,101853.59
2022-11-25T22:50:56.278Z,101858.75
2022-11-25T22:53:25.569Z,101868.13
2022-11-25T22:55:56.697Z,101878.41
2022-11-25T22:58:24.706Z,101871.41
2022-11-25T23:00:52.111Z,101881.50
2022-11-25T23:03:21.528Z,101882.66
2022-11-25T23:05:50.265Z,101881.28
2022-11-25T23:08:19.873Z,101889.81
2022-11-25T23:10:47.567Z,101894.28
2022-11-25T23:13:15.835Z,101892.03
2022-11-25T23:15:46.601Z,101896.97
2022-11-25T23:18:16.139Z,101908.94
2022-11-25T23:20:42.627Z,101911.69
2022-11-25T23:23:23.889Z,101913.75
2022-11-25T23:25:50.831Z,101917.16
2022-11-25T23:28:17.597Z,101912.41
2022-11-25T23:30:53.740Z,101909.66
2022-11-25T23:33:37.000Z,101923.19
2022-11-25T23:36:18.314Z,101924.03
2022-11-25T23:38:49.847Z,101917.72
2022-11-25T23:41:28.425Z,101927.94
2022-11-25T23:43:55.274Z,101927.94
2022-11-25T23:46:29.654Z,101943.50
2022-11-25T23:48:59.418Z,101938.22
2022-11-25T23:51:28.200Z,101942.84
2022-11-25T23:53:56.433Z,101947.25
2022-11-25T23:56:24.383Z,101944.53
2022-11-25T23:58:50.799Z,101949.84
